Terminal Aerodrome Forecast
Issued by NWS

Home | Current Version | Previous Version | Text Only | Print | Product List | Glossary On
Versions: 1 2 3 4 5 6 7 8 9 10 11 12
000
FTUS43 KOAX 041130
TAFSNY
TAF
KSNY 041130Z 0412/0512 27007KT P6SM SKC
     FM042100 18011KT P6SM SCT120
     FM050000 15008KT P6SM VCSH BKN100
     FM050600 20006KT P6SM BKN120=

USA.gov is the U.S. government's official web portal to all federal, state and local government web resources and services.